Time;durP1;ratioP1;P1;durP2;ratioP2;P2;SDS_P1;SDS_P2;PMS_P1;PMS_P2;Temp;Humidity;BMP_temperature;BMP_pressure;BME280_temperature;BME280_humidity;BME280_pressure;Samples;Min_cycle;Max_cycle;Signal;HPM_P1;HPM_P2
2021/10/01 00:00:54;;;;;;;5.30;1.00;;;;;;;;;;5092436;28;20061;-75
2021/10/01 00:03:20;;;;;;;4.70;1.20;;;;;;;;;;5093591;28;20032;-75
2021/10/01 00:05:45;;;;;;;10.60;2.28;;;;;;;;;;5092751;28;20036;-75
2021/10/01 00:08:10;;;;;;;2.72;1.35;;;;;;;;;;5092912;28;20124;-75
2021/10/01 00:10:36;;;;;;;7.15;1.45;;;;;;;;;;5093799;28;20039;-75
2021/10/01 00:13:02;;;;;;;3.03;1.15;;;;;;;;;;5093372;28;20505;-75
2021/10/01 00:15:28;;;;;;;1.92;1.10;;;;;;;;;;5093517;28;20046;-75
2021/10/01 00:17:54;;;;;;;5.03;1.52;;;;;;;;;;5092148;28;20036;-75
2021/10/01 00:20:19;;;;;;;1.27;0.82;;;;;;;;;;5093832;28;20040;-75
2021/10/01 00:22:45;;;;;;;7.68;2.13;;;;;;;;;;5092667;28;20027;-75
2021/10/01 00:25:10;;;;;;;2.90;1.20;;;;;;;;;;5093570;28;20032;-75
2021/10/01 00:27:36;;;;;;;3.67;1.40;;;;;;;;;;5093518;28;20407;-75
2021/10/01 00:30:04;;;;;;;3.67;1.20;;;;;;;;;;5092199;28;20043;-75
2021/10/01 00:32:29;;;;;;;3.75;1.30;;;;;;;;;;5092255;28;20032;-75
2021/10/01 00:34:54;;;;;;;3.08;1.30;;;;;;;;;;5093796;28;20160;-75
2021/10/01 00:37:20;;;;;;;1.83;1.10;;;;;;;;;;5096558;28;20024;-75
2021/10/01 00:39:46;;;;;;;2.38;0.98;;;;;;;;;;5095532;28;20475;-75
2021/10/01 00:42:11;;;;;;;1.65;0.95;;;;;;;;;;5095405;28;20053;-75
2021/10/01 00:44:37;;;;;;;4.78;1.45;;;;;;;;;;5096585;28;20036;-75
2021/10/01 00:47:02;;;;;;;5.93;1.48;;;;;;;;;;5095385;28;20039;-75
2021/10/01 00:49:28;;;;;;;2.00;1.30;;;;;;;;;;5095369;28;20459;-75
2021/10/01 00:51:53;;;;;;;4.18;1.27;;;;;;;;;;5095481;28;20044;-75
2021/10/01 00:54:19;;;;;;;2.13;1.00;;;;;;;;;;5095480;28;20036;-75
2021/10/01 00:56:45;;;;;;;9.35;1.60;;;;;;;;;;5096032;28;20094;-75
2021/10/01 00:59:10;;;;;;;3.80;1.75;;;;;;;;;;5096930;28;20039;-75
2021/10/01 01:01:36;;;;;;;2.85;1.15;;;;;;;;;;5094327;28;20127;-75
2021/10/01 01:04:05;;;;;;;8.48;1.02;;;;;;;;;;5095861;28;20028;-75
2021/10/01 01:06:48;;;;;;;3.80;1.40;;;;;;;;;;5096892;28;20498;-75
2021/10/01 01:09:51;;;;;;;0.90;0.90;;;;;;;;;;5094995;28;20048;-75
2021/10/01 01:12:28;;;;;;;5.40;1.25;;;;;;;;;;5096095;28;20142;-75
2021/10/01 01:14:56;;;;;;;3.65;1.20;;;;;;;;;;5095786;28;20042;-75
2021/10/01 01:17:29;;;;;;;2.90;1.33;;;;;;;;;;5095956;28;20039;-75
2021/10/01 01:20:28;;;;;;;10.13;2.08;;;;;;;;;;5095548;28;20068;-75
2021/10/01 01:23:16;;;;;;;5.30;1.33;;;;;;;;;;5097145;28;20137;-75
2021/10/01 01:26:11;;;;;;;3.42;1.30;;;;;;;;;;5095929;28;20078;-75
2021/10/01 01:28:58;;;;;;;6.88;1.20;;;;;;;;;;5096836;28;20040;-75
2021/10/01 01:31:37;;;;;;;3.08;1.17;;;;;;;;;;5095549;28;20035;-75
2021/10/01 01:34:06;;;;;;;3.35;1.90;;;;;;;;;;5094569;28;20036;-75
2021/10/01 01:36:33;;;;;;;6.00;1.20;;;;;;;;;;5094675;28;20036;-75
2021/10/01 01:39:00;;;;;;;1.88;1.10;;;;;;;;;;5093409;28;20123;-75
2021/10/01 01:41:27;;;;;;;2.92;1.10;;;;;;;;;;5094539;28;20077;-75
2021/10/01 01:43:55;;;;;;;7.15;1.35;;;;;;;;;;5096077;28;20028;-75
2021/10/01 01:46:22;;;;;;;7.00;1.90;;;;;;;;;;5095597;28;20074;-75
2021/10/01 01:48:50;;;;;;;8.80;1.85;;;;;;;;;;5094976;28;20059;-75
2021/10/01 01:51:16;;;;;;;4.70;1.27;;;;;;;;;;5094331;28;20036;-75
2021/10/01 01:53:43;;;;;;;7.45;1.40;;;;;;;;;;5094934;28;20053;-75
2021/10/01 01:56:10;;;;;;;2.88;1.45;;;;;;;;;;5096226;28;20431;-75
2021/10/01 01:58:36;;;;;;;2.65;1.00;;;;;;;;;;5093871;28;20032;-75
2021/10/01 02:01:13;;;;;;;1.92;1.05;;;;;;;;;;5093957;28;20031;-75
2021/10/01 02:03:51;;;;;;;4.28;1.48;;;;;;;;;;5094474;28;20055;-75
2021/10/01 02:06:23;;;;;;;4.25;1.95;;;;;;;;;;5094205;28;20039;-75
2021/10/01 02:08:49;;;;;;;7.22;1.95;;;;;;;;;;5091309;28;20044;-75
2021/10/01 02:11:15;;;;;;;7.25;1.60;;;;;;;;;;5091488;28;20568;-75
2021/10/01 02:13:42;;;;;;;6.00;1.50;;;;;;;;;;5075508;28;20119;-76
2021/10/01 02:16:13;;;;;;;6.30;1.35;;;;;;;;;;5093405;28;20360;-74
2021/10/01 02:18:41;;;;;;;3.13;1.50;;;;;;;;;;5092460;28;20111;-74
2021/10/01 02:21:07;;;;;;;3.50;1.13;;;;;;;;;;5093794;28;20448;-75
2021/10/01 02:23:34;;;;;;;2.42;1.38;;;;;;;;;;5093323;28;20081;-76
2021/10/01 02:28:54;;;;;;;1.92;1.05;;;;;;;;;;5092623;28;20058;-75
2021/10/01 02:31:32;;;;;;;2.67;1.35;;;;;;;;;;5093176;28;20059;-75
2021/10/01 02:34:03;;;;;;;3.00;1.30;;;;;;;;;;5091636;28;20044;-75
2021/10/01 02:36:29;;;;;;;6.88;1.45;;;;;;;;;;5090643;28;20089;-75
2021/10/01 02:38:55;;;;;;;2.33;1.30;;;;;;;;;;5091247;28;20499;-75
2021/10/01 02:41:20;;;;;;;8.52;1.45;;;;;;;;;;5093064;28;20032;-75
2021/10/01 02:43:45;;;;;;;2.75;1.38;;;;;;;;;;5076186;28;20028;-76
2021/10/01 02:46:11;;;;;;;2.33;1.15;;;;;;;;;;5091972;28;20082;-75
2021/10/01 02:48:39;;;;;;;3.30;1.52;;;;;;;;;;5092536;28;20119;-76
2021/10/01 02:51:11;;;;;;;6.18;1.60;;;;;;;;;;5093293;28;20055;-77
2021/10/01 02:53:55;;;;;;;2.08;1.23;;;;;;;;;;5093070;28;20036;-77
2021/10/01 02:56:46;;;;;;;4.60;1.15;;;;;;;;;;5094109;28;20123;-77
2021/10/01 02:59:14;;;;;;;4.43;1.63;;;;;;;;;;5092849;28;20075;-76
2021/10/01 03:01:42;;;;;;;2.90;1.38;;;;;;;;;;5092732;28;20185;-77
2021/10/01 03:04:10;;;;;;;3.33;1.38;;;;;;;;;;5093598;28;20048;-76
2021/10/01 03:06:43;;;;;;;3.72;1.77;;;;;;;;;;5092762;28;20032;-77
2021/10/01 03:09:10;;;;;;;6.72;1.67;;;;;;;;;;5093311;28;20047;-76
2021/10/01 03:11:38;;;;;;;8.43;1.48;;;;;;;;;;5089948;28;20059;-77
2021/10/01 03:14:07;;;;;;;3.75;1.40;;;;;;;;;;5091279;28;20032;-76
2021/10/01 03:16:35;;;;;;;4.47;1.50;;;;;;;;;;5090084;28;20039;-76
2021/10/01 03:19:04;;;;;;;7.38;1.73;;;;;;;;;;5092111;28;20561;-76
2021/10/01 03:21:32;;;;;;;2.72;1.63;;;;;;;;;;5091464;28;20070;-77
2021/10/01 03:23:58;;;;;;;2.88;1.50;;;;;;;;;;5091519;28;20046;-76
2021/10/01 03:26:27;;;;;;;10.80;1.42;;;;;;;;;;5091066;28;20035;-77
2021/10/01 03:28:53;;;;;;;7.75;1.77;;;;;;;;;;5092279;28;20031;-76
2021/10/01 03:31:19;;;;;;;5.30;1.98;;;;;;;;;;5092119;28;20462;-76
2021/10/01 03:33:45;;;;;;;1.10;1.00;;;;;;;;;;5092104;28;20043;-76
2021/10/01 03:36:11;;;;;;;1.60;1.45;;;;;;;;;;5092105;28;20410;-76
2021/10/01 03:38:39;;;;;;;5.57;1.50;;;;;;;;;;5091774;28;20119;-77
2021/10/01 03:41:06;;;;;;;2.45;1.50;;;;;;;;;;5092247;28;20052;-76
2021/10/01 03:43:32;;;;;;;2.85;1.20;;;;;;;;;;5075337;28;20052;-76
2021/10/01 03:45:57;;;;;;;7.65;1.85;;;;;;;;;;5091252;28;20043;-76
2021/10/01 03:48:25;;;;;;;3.17;1.40;;;;;;;;;;5091840;28;20031;-76
2021/10/01 03:50:56;;;;;;;3.13;1.17;;;;;;;;;;5091251;28;20028;-77
2021/10/01 03:53:22;;;;;;;7.90;1.50;;;;;;;;;;5093152;28;20437;-77
2021/10/01 03:55:47;;;;;;;4.70;1.65;;;;;;;;;;5093263;28;20137;-77
2021/10/01 03:58:14;;;;;;;2.40;1.60;;;;;;;;;;5091687;28;20054;-76
2021/10/01 04:00:39;;;;;;;3.70;1.60;;;;;;;;;;5074073;28;20535;-77
2021/10/01 04:03:05;;;;;;;4.07;1.50;;;;;;;;;;5074965;28;20045;-77
2021/10/01 04:05:40;;;;;;;2.70;1.57;;;;;;;;;;5090833;28;20059;-76
2021/10/01 04:08:11;;;;;;;5.57;1.70;;;;;;;;;;5091654;28;20064;-77
2021/10/01 04:10:40;;;;;;;4.55;1.42;;;;;;;;;;5094636;28;20073;-76
2021/10/01 04:13:07;;;;;;;2.50;1.60;;;;;;;;;;5095957;28;20469;-76
2021/10/01 04:15:36;;;;;;;4.07;1.50;;;;;;;;;;5079150;28;20406;-76
2021/10/01 04:18:02;;;;;;;1.50;1.20;;;;;;;;;;5095596;28;20032;-76
2021/10/01 04:20:28;;;;;;;4.00;1.30;;;;;;;;;;5097043;28;20039;-77
2021/10/01 04:22:54;;;;;;;2.67;1.60;;;;;;;;;;5094932;28;20085;-76
2021/10/01 04:25:52;;;;;;;2.53;1.63;;;;;;;;;;5083990;28;20051;-77
2021/10/01 04:28:19;;;;;;;8.18;2.70;;;;;;;;;;5095534;28;20039;-77
2021/10/01 04:30:49;;;;;;;4.60;1.45;;;;;;;;;;5095746;28;20440;-77
2021/10/01 04:35:44;;;;;;;2.72;1.83;;;;;;;;;;5093303;28;20028;-75
2021/10/01 04:38:10;;;;;;;7.28;1.70;;;;;;;;;;5093007;28;20521;-75
2021/10/01 04:40:37;;;;;;;5.80;1.70;;;;;;;;;;5075760;28;20050;-75
2021/10/01 04:43:02;;;;;;;3.80;1.15;;;;;;;;;;5095773;28;20039;-75
2021/10/01 04:45:28;;;;;;;8.15;1.25;;;;;;;;;;5095488;28;20119;-75
2021/10/01 04:47:53;;;;;;;3.60;1.25;;;;;;;;;;5096376;28;20117;-75
2021/10/01 04:50:19;;;;;;;4.15;1.10;;;;;;;;;;5095373;28;20036;-75
2021/10/01 04:52:45;;;;;;;2.83;1.40;;;;;;;;;;5095086;28;20044;-75
2021/10/01 04:55:12;;;;;;;8.00;1.63;;;;;;;;;;5078371;28;20119;-75
2021/10/01 04:57:38;;;;;;;2.55;1.15;;;;;;;;;;5093933;28;20178;-75
2021/10/01 05:00:33;;;;;;;8.57;1.40;;;;;;;;;;5095300;28;20040;-75
2021/10/01 05:03:17;;;;;;;4.05;1.38;;;;;;;;;;5094402;28;20121;-75
2021/10/01 05:06:02;;;;;;;2.45;1.20;;;;;;;;;;5092911;28;20035;-75
2021/10/01 05:09:06;;;;;;;2.08;1.38;;;;;;;;;;5085838;28;20048;-75
2021/10/01 05:11:50;;;;;;;2.65;1.10;;;;;;;;;;5096001;28;20047;-75
2021/10/01 05:14:35;;;;;;;6.20;1.30;;;;;;;;;;5095577;28;20123;-75
2021/10/01 05:17:19;;;;;;;4.90;1.00;;;;;;;;;;5095430;28;20097;-75
2021/10/01 05:20:07;;;;;;;5.88;1.52;;;;;;;;;;5095425;28;20553;-76
2021/10/01 05:22:38;;;;;;;1.90;1.10;;;;;;;;;;5094533;28;20032;-74
2021/10/01 05:25:06;;;;;;;1.65;1.00;;;;;;;;;;5094597;28;20031;-73
2021/10/01 05:27:32;;;;;;;2.65;1.00;;;;;;;;;;5093647;28;20042;-76
2021/10/01 05:29:58;;;;;;;1.13;0.70;;;;;;;;;;5095537;28;20040;-74
2021/10/01 05:32:23;;;;;;;1.92;1.10;;;;;;;;;;5094268;28;20115;-74
2021/10/01 05:34:49;;;;;;;1.83;1.10;;;;;;;;;;5094659;28;20424;-75
2021/10/01 05:37:15;;;;;;;4.90;1.02;;;;;;;;;;5095324;28;20410;-75
2021/10/01 05:39:41;;;;;;;8.82;1.75;;;;;;;;;;5093700;28;20035;-75
2021/10/01 05:42:07;;;;;;;3.78;1.38;;;;;;;;;;5094333;28;20028;-75
2021/10/01 05:44:32;;;;;;;5.60;1.27;;;;;;;;;;5094312;28;20032;-74
2021/10/01 05:47:16;;;;;;;4.30;1.10;;;;;;;;;;5093266;28;20128;-76
2021/10/01 05:50:14;;;;;;;2.78;0.90;;;;;;;;;;5072568;28;20040;-75
2021/10/01 05:53:04;;;;;;;3.60;1.30;;;;;;;;;;5093741;28;20113;-75
2021/10/01 05:55:59;;;;;;;3.20;1.60;;;;;;;;;;5073908;28;20040;-75
2021/10/01 05:58:56;;;;;;;4.05;1.55;;;;;;;;;;5093868;28;20036;-75
2021/10/01 06:01:22;;;;;;;4.72;1.83;;;;;;;;;;5093788;28;20032;-75
2021/10/01 06:03:49;;;;;;;4.45;1.88;;;;;;;;;;5093020;28;20111;-75
2021/10/01 06:06:15;;;;;;;3.38;1.73;;;;;;;;;;5093907;28;20554;-74
2021/10/01 06:08:40;;;;;;;5.10;1.10;;;;;;;;;;5094636;28;20079;-75
2021/10/01 06:11:05;;;;;;;4.00;1.48;;;;;;;;;;5095344;28;20066;-76
2021/10/01 06:13:31;;;;;;;4.88;1.40;;;;;;;;;;5092474;28;20048;-76
2021/10/01 06:15:57;;;;;;;7.60;2.15;;;;;;;;;;5093407;28;20071;-75
2021/10/01 06:18:22;;;;;;;1.80;1.10;;;;;;;;;;5095299;28;20035;-77
2021/10/01 06:20:48;;;;;;;3.55;1.30;;;;;;;;;;5096811;28;20085;-76
2021/10/01 06:23:14;;;;;;;4.10;1.45;;;;;;;;;;5079729;28;20040;-77
2021/10/01 06:25:39;;;;;;;6.00;1.35;;;;;;;;;;5095681;28;20035;-76
2021/10/01 06:28:04;;;;;;;3.83;1.20;;;;;;;;;;5095884;28;20123;-77
2021/10/01 06:30:29;;;;;;;2.25;1.50;;;;;;;;;;5093895;28;20131;-76
2021/10/01 06:32:57;;;;;;;3.80;1.17;;;;;;;;;;5092526;28;20047;-76
2021/10/01 06:35:22;;;;;;;4.32;1.50;;;;;;;;;;5093768;28;20047;-76
2021/10/01 06:37:47;;;;;;;3.50;1.40;;;;;;;;;;5093119;28;20562;-75
2021/10/01 06:40:13;;;;;;;4.40;2.17;;;;;;;;;;5091775;28;20032;-76
2021/10/01 06:42:41;;;;;;;4.43;1.23;;;;;;;;;;5094520;28;20040;-78
2021/10/01 06:45:07;;;;;;;2.65;1.40;;;;;;;;;;5094309;28;20487;-76
2021/10/01 07:21:15;;;;;;;6.45;1.10;;;;;;;;;;5080112;28;20055;-76
2021/10/01 07:35:06;;;;;;;6.95;1.33;;;;;;;;;;5079697;28;20488;-77
2021/10/01 08:20:35;;;;;;;7.03;1.50;;;;;;;;;;5092274;28;20043;-76
2021/10/01 08:23:00;;;;;;;5.45;1.33;;;;;;;;;;5092812;28;20020;-76
2021/10/01 08:25:26;;;;;;;5.35;1.90;;;;;;;;;;5091167;28;20487;-76
2021/10/01 08:27:52;;;;;;;8.63;1.60;;;;;;;;;;5091987;28;20081;-75
2021/10/01 08:30:18;;;;;;;4.78;1.20;;;;;;;;;;5091910;28;20040;-75
2021/10/01 08:32:43;;;;;;;3.13;1.10;;;;;;;;;;5092620;28;20038;-76
2021/10/01 08:35:10;;;;;;;11.73;1.92;;;;;;;;;;5092622;28;20403;-75
2021/10/01 08:37:38;;;;;;;6.45;1.60;;;;;;;;;;5091764;28;20028;-76
2021/10/01 08:40:05;;;;;;;2.17;1.23;;;;;;;;;;5092967;28;20575;-76
2021/10/01 08:42:43;;;;;;;2.97;1.30;;;;;;;;;;5072325;28;20028;-75
2021/10/01 08:45:11;;;;;;;5.05;1.17;;;;;;;;;;5070933;28;20040;-76
2021/10/01 08:47:37;;;;;;;4.55;1.30;;;;;;;;;;5070208;28;20036;-76
2021/10/01 08:50:05;;;;;;;3.30;1.27;;;;;;;;;;5071519;28;20036;-76
2021/10/01 08:52:30;;;;;;;5.10;2.08;;;;;;;;;;5075353;28;20046;-76
2021/10/01 08:54:56;;;;;;;8.32;1.55;;;;;;;;;;5092881;28;20107;-76
2021/10/01 08:57:22;;;;;;;11.25;2.17;;;;;;;;;;5096009;28;20039;-76
2021/10/01 08:59:47;;;;;;;10.90;1.50;;;;;;;;;;5096569;28;20081;-76
2021/10/01 09:02:14;;;;;;;8.55;1.63;;;;;;;;;;5096677;28;20043;-76
2021/10/01 09:04:39;;;;;;;5.72;1.30;;;;;;;;;;5096232;28;20475;-76
2021/10/01 09:07:05;;;;;;;7.22;1.73;;;;;;;;;;5096493;28;20085;-76
2021/10/01 09:09:40;;;;;;;8.82;1.35;;;;;;;;;;5095940;28;20048;-75
2021/10/01 09:12:07;;;;;;;6.22;2.00;;;;;;;;;;5096158;28;20036;-75
2021/10/01 09:14:52;;;;;;;3.80;1.30;;;;;;;;;;5093823;28;20556;-76
2021/10/01 09:17:19;;;;;;;11.85;2.03;;;;;;;;;;5096136;28;20387;-76
2021/10/01 09:19:46;;;;;;;5.82;1.70;;;;;;;;;;5095929;28;20499;-75
2021/10/01 09:22:28;;;;;;;7.90;1.77;;;;;;;;;;5094504;28;20026;-76
2021/10/01 09:25:23;;;;;;;2.95;1.10;;;;;;;;;;5096214;28;20122;-76
2021/10/01 09:28:01;;;;;;;4.68;1.27;;;;;;;;;;5093551;28;20074;-76
2021/10/01 09:30:27;;;;;;;4.10;1.40;;;;;;;;;;5095970;28;20040;-75
2021/10/01 09:33:12;;;;;;;3.80;1.45;;;;;;;;;;5095790;28;20040;-75
2021/10/01 09:35:38;;;;;;;4.00;1.50;;;;;;;;;;5094755;28;20028;-75
2021/10/01 09:38:06;;;;;;;4.00;1.10;;;;;;;;;;5093744;28;20426;-75
2021/10/01 09:40:32;;;;;;;3.92;1.38;;;;;;;;;;5095656;28;20036;-75
2021/10/01 09:42:57;;;;;;;3.95;1.42;;;;;;;;;;5095317;28;20103;-75
2021/10/01 09:45:23;;;;;;;4.25;1.50;;;;;;;;;;5095958;28;20155;-76
2021/10/01 09:47:50;;;;;;;8.65;1.60;;;;;;;;;;5094456;28;20044;-75
2021/10/01 09:50:30;;;;;;;5.10;1.95;;;;;;;;;;5095803;28;20036;-76
2021/10/01 09:53:04;;;;;;;4.22;1.45;;;;;;;;;;5093837;28;20466;-75
2021/10/01 09:55:38;;;;;;;8.50;1.60;;;;;;;;;;5095097;28;20036;-76
2021/10/01 09:58:12;;;;;;;5.68;1.52;;;;;;;;;;5093910;28;20056;-76
2021/10/01 10:00:45;;;;;;;5.78;1.25;;;;;;;;;;5095641;28;20051;-76
2021/10/01 10:03:23;;;;;;;5.75;1.40;;;;;;;;;;5095469;28;20067;-76
2021/10/01 10:06:06;;;;;;;3.80;1.40;;;;;;;;;;5094280;28;20040;-76
2021/10/01 10:08:35;;;;;;;5.43;1.48;;;;;;;;;;5093752;28;20051;-76
2021/10/01 10:11:09;;;;;;;3.97;1.40;;;;;;;;;;5093611;28;20059;-76
2021/10/01 10:13:39;;;;;;;6.47;1.85;;;;;;;;;;5094591;28;20036;-76
2021/10/01 10:16:06;;;;;;;4.13;1.10;;;;;;;;;;5095090;28;20040;-76
2021/10/01 10:18:31;;;;;;;4.15;1.50;;;;;;;;;;5095012;28;20432;-76
2021/10/01 10:20:56;;;;;;;3.33;1.17;;;;;;;;;;5094977;28;20146;-76
2021/10/01 10:23:22;;;;;;;5.05;0.98;;;;;;;;;;5094814;28;20028;-76
2021/10/01 10:25:48;;;;;;;4.72;1.70;;;;;;;;;;5093865;28;20197;-76
2021/10/01 10:28:13;;;;;;;3.75;1.27;;;;;;;;;;5092035;28;20115;-75
2021/10/01 10:30:38;;;;;;;6.22;1.50;;;;;;;;;;5093433;28;20036;-76
2021/10/01 10:33:40;;;;;;;2.90;1.13;;;;;;;;;;5094516;28;20036;-76
2021/10/01 10:36:33;;;;;;;3.38;1.15;;;;;;;;;;5094874;28;20052;-76
2021/10/01 10:39:12;;;;;;;7.70;1.58;;;;;;;;;;5093218;28;20115;-75
2021/10/01 10:41:42;;;;;;;5.78;1.60;;;;;;;;;;5094065;28;20074;-75
2021/10/01 10:44:09;;;;;;;2.78;1.10;;;;;;;;;;5094388;28;20044;-76
2021/10/01 10:46:34;;;;;;;2.33;1.08;;;;;;;;;;5093458;28;20101;-76
2021/10/01 10:49:17;;;;;;;5.22;1.35;;;;;;;;;;5093079;28;20467;-76
2021/10/01 10:52:07;;;;;;;6.82;1.27;;;;;;;;;;5094198;28;20448;-76
2021/10/01 10:54:35;;;;;;;5.18;0.80;;;;;;;;;;5094460;28;20475;-76
2021/10/01 10:57:16;;;;;;;8.77;1.10;;;;;;;;;;5093293;28;20028;-76
2021/10/01 10:59:48;;;;;;;9.68;1.20;;;;;;;;;;5093110;28;20036;-76
2021/10/01 11:02:26;;;;;;;2.05;1.20;;;;;;;;;;5092938;28;20085;-76
2021/10/01 11:05:26;;;;;;;6.00;1.23;;;;;;;;;;5094270;28;20028;-76
2021/10/01 11:08:01;;;;;;;4.13;0.82;;;;;;;;;;5093733;28;20051;-75
2021/10/01 11:10:45;;;;;;;4.68;0.75;;;;;;;;;;5094004;28;20032;-75
2021/10/01 11:13:24;;;;;;;4.75;1.42;;;;;;;;;;5092570;28;20040;-75
2021/10/01 11:16:06;;;;;;;5.30;1.38;;;;;;;;;;5094275;28;20055;-75
2021/10/01 11:18:32;;;;;;;4.55;0.98;;;;;;;;;;5093267;28;20081;-75
2021/10/01 11:20:57;;;;;;;9.40;1.35;;;;;;;;;;5092473;28;20441;-75
2021/10/01 11:23:23;;;;;;;0.98;0.57;;;;;;;;;;5093756;28;20036;-75
2021/10/01 11:25:49;;;;;;;7.32;1.77;;;;;;;;;;5093721;28;20039;-76
2021/10/01 11:28:16;;;;;;;3.95;1.33;;;;;;;;;;5092382;28;20054;-76
2021/10/01 11:30:49;;;;;;;4.45;1.08;;;;;;;;;;5093478;28;20060;-76
2021/10/01 11:33:15;;;;;;;3.30;0.88;;;;;;;;;;5092340;28;20097;-76
2021/10/01 11:35:58;;;;;;;5.88;1.00;;;;;;;;;;5092155;28;20036;-76
2021/10/01 11:38:27;;;;;;;4.25;1.30;;;;;;;;;;5093411;28;20164;-75
2021/10/01 11:41:07;;;;;;;2.58;0.90;;;;;;;;;;5093265;28;20407;-76
2021/10/01 11:43:32;;;;;;;4.78;1.30;;;;;;;;;;5091680;28;20067;-75
2021/10/01 11:45:57;;;;;;;5.22;0.90;;;;;;;;;;5093260;28;20078;-75
2021/10/01 11:48:33;;;;;;;2.40;1.00;;;;;;;;;;5092130;28;20069;-76
2021/10/01 11:50:58;;;;;;;8.93;1.00;;;;;;;;;;5075419;28;20429;-76
2021/10/01 11:53:26;;;;;;;2.53;1.00;;;;;;;;;;5092657;28;20032;-75
2021/10/01 11:56:01;;;;;;;7.80;1.15;;;;;;;;;;5092011;28;20585;-76
2021/10/01 11:58:28;;;;;;;7.37;1.07;;;;;;;;;;5091646;28;20475;-75
2021/10/01 12:00:55;;;;;;;2.88;1.27;;;;;;;;;;5091911;28;20085;-75
2021/10/01 12:03:21;;;;;;;4.20;0.90;;;;;;;;;;5093252;28;20032;-76
2021/10/01 12:05:49;;;;;;;2.80;0.95;;;;;;;;;;5092071;28;20040;-76
2021/10/01 12:08:17;;;;;;;22.48;1.33;;;;;;;;;;5090096;28;20127;-76
2021/10/01 12:10:46;;;;;;;4.60;1.20;;;;;;;;;;5091633;28;20051;-75
2021/10/01 12:13:23;;;;;;;5.97;1.30;;;;;;;;;;5091509;28;20504;-76
2021/10/01 12:15:57;;;;;;;3.75;1.10;;;;;;;;;;5089992;28;20047;-76
2021/10/01 12:18:57;;;;;;;5.43;0.88;;;;;;;;;;5092575;28;20467;-76
2021/10/01 12:21:24;;;;;;;1.90;1.10;;;;;;;;;;5094437;28;20067;-78
2021/10/01 12:23:56;;;;;;;2.47;0.93;;;;;;;;;;5094542;28;20111;-77
2021/10/01 12:26:31;;;;;;;4.72;0.88;;;;;;;;;;5092979;28;20119;-78
2021/10/01 12:29:03;;;;;;;1.75;0.80;;;;;;;;;;5092865;28;20032;-76
2021/10/01 12:31:35;;;;;;;3.47;1.08;;;;;;;;;;5093816;28;20028;-76
2021/10/01 12:34:03;;;;;;;2.30;0.90;;;;;;;;;;5097223;28;20024;-76
2021/10/01 12:36:29;;;;;;;4.05;0.88;;;;;;;;;;5096993;28;20036;-76
2021/10/01 12:38:56;;;;;;;2.45;0.82;;;;;;;;;;5078333;28;20020;-76
2021/10/01 12:41:23;;;;;;;7.63;1.35;;;;;;;;;;5096418;28;20379;-76
2021/10/01 12:43:52;;;;;;;3.10;1.05;;;;;;;;;;5094406;28;20072;-75
2021/10/01 12:46:31;;;;;;;4.47;1.00;;;;;;;;;;5077410;28;20035;-75
2021/10/01 12:49:11;;;;;;;3.28;0.95;;;;;;;;;;5094909;28;20094;-75
2021/10/01 12:51:36;;;;;;;1.70;0.88;;;;;;;;;;5096003;28;20089;-75
2021/10/01 12:54:20;;;;;;;3.00;0.95;;;;;;;;;;5096161;28;20024;-76
2021/10/01 12:56:45;;;;;;;3.30;0.90;;;;;;;;;;5095565;28;20038;-75
2021/10/01 12:59:11;;;;;;;3.25;1.00;;;;;;;;;;5094783;28;20027;-76
2021/10/01 13:01:36;;;;;;;2.47;1.25;;;;;;;;;;5096292;28;20099;-76
2021/10/01 13:04:02;;;;;;;8.40;1.40;;;;;;;;;;5095621;28;20034;-75
2021/10/01 13:06:31;;;;;;;2.60;0.90;;;;;;;;;;5094684;28;20081;-75
2021/10/01 13:08:56;;;;;;;5.28;1.25;;;;;;;;;;5095506;28;20044;-75
2021/10/01 13:11:21;;;;;;;3.15;0.63;;;;;;;;;;5095307;28;20032;-76
2021/10/01 13:13:47;;;;;;;1.00;0.60;;;;;;;;;;5095329;28;20092;-75
2021/10/01 13:16:24;;;;;;;2.97;0.80;;;;;;;;;;5095600;28;20064;-75
2021/10/01 13:19:02;;;;;;;3.28;1.00;;;;;;;;;;5095558;28;20384;-75
2021/10/01 13:21:27;;;;;;;3.60;0.75;;;;;;;;;;5095872;28;20032;-75
2021/10/01 13:23:52;;;;;;;2.05;0.75;;;;;;;;;;5095235;28;20821;-76
2021/10/01 13:26:23;;;;;;;5.70;1.10;;;;;;;;;;5095679;28;20085;-76
2021/10/01 13:28:52;;;;;;;4.28;0.80;;;;;;;;;;5094044;28;20487;-75
2021/10/01 13:31:19;;;;;;;1.85;0.90;;;;;;;;;;5095494;28;20024;-75
2021/10/01 13:33:46;;;;;;;5.07;1.13;;;;;;;;;;5095414;28;20054;-75
2021/10/01 13:36:13;;;;;;;3.15;0.80;;;;;;;;;;5095710;28;20066;-76
2021/10/01 13:38:41;;;;;;;1.63;0.80;;;;;;;;;;5094034;28;20067;-76
2021/10/01 13:41:09;;;;;;;3.70;0.70;;;;;;;;;;5094861;28;20127;-76
2021/10/01 13:43:36;;;;;;;2.10;0.95;;;;;;;;;;5093378;28;20122;-76
2021/10/01 13:46:04;;;;;;;8.15;1.00;;;;;;;;;;5095225;28;20042;-76
2021/10/01 13:48:29;;;;;;;1.67;0.85;;;;;;;;;;5094138;28;20475;-76
2021/10/01 13:50:55;;;;;;;3.22;0.90;;;;;;;;;;5093437;28;20031;-76
2021/10/01 13:53:22;;;;;;;3.53;0.93;;;;;;;;;;5095134;28;20406;-76
2021/10/01 13:55:48;;;;;;;2.90;1.15;;;;;;;;;;5095052;28;20044;-76
2021/10/01 13:58:15;;;;;;;2.67;1.02;;;;;;;;;;5094718;28;20039;-76
2021/10/01 14:00:41;;;;;;;4.45;1.00;;;;;;;;;;5093534;28;20434;-76
2021/10/01 14:03:07;;;;;;;1.17;0.57;;;;;;;;;;5093840;28;20481;-77
2021/10/01 14:05:33;;;;;;;3.60;1.20;;;;;;;;;;5094883;28;20054;-76
2021/10/01 14:07:59;;;;;;;3.40;0.80;;;;;;;;;;5094772;28;20093;-77
2021/10/01 14:10:28;;;;;;;1.85;0.80;;;;;;;;;;5093685;28;20042;-77
2021/10/01 14:12:54;;;;;;;1.48;0.82;;;;;;;;;;5095161;28;20422;-76
2021/10/01 14:15:21;;;;;;;5.35;0.68;;;;;;;;;;5095651;28;20054;-77
2021/10/01 14:17:47;;;;;;;2.28;0.90;;;;;;;;;;5096442;28;20047;-81
2021/10/01 14:20:15;;;;;;;2.03;1.10;;;;;;;;;;5097256;28;20036;-76
2021/10/01 14:22:41;;;;;;;4.15;1.08;;;;;;;;;;5095125;28;20493;-79
2021/10/01 14:25:09;;;;;;;4.18;1.00;;;;;;;;;;5095843;28;20225;-76
2021/10/01 14:27:36;;;;;;;5.43;1.20;;;;;;;;;;5096193;28;20092;-79
2021/10/01 14:30:04;;;;;;;2.10;1.35;;;;;;;;;;5098264;28;20047;-79
2021/10/01 14:32:30;;;;;;;4.13;0.95;;;;;;;;;;5100974;28;20032;-80
2021/10/01 14:34:55;;;;;;;2.13;0.90;;;;;;;;;;5096256;28;20051;-78
2021/10/01 14:37:21;;;;;;;2.97;0.80;;;;;;;;;;5094517;28;20046;-78
2021/10/01 14:39:46;;;;;;;3.33;0.90;;;;;;;;;;5096307;28;20089;-77
2021/10/01 14:42:12;;;;;;;5.53;0.73;;;;;;;;;;5095687;28;20068;-78
2021/10/01 14:44:38;;;;;;;1.27;0.65;;;;;;;;;;5099470;28;20039;-80
2021/10/01 14:47:03;;;;;;;4.97;0.68;;;;;;;;;;5099379;28;20028;-79
2021/10/01 14:49:29;;;;;;;4.50;0.98;;;;;;;;;;5099350;28;20028;-79
2021/10/01 14:51:54;;;;;;;1.27;0.70;;;;;;;;;;5097030;28;20065;-78
2021/10/01 14:54:20;;;;;;;1.20;0.73;;;;;;;;;;5100041;28;20028;-79
2021/10/01 14:56:45;;;;;;;4.38;1.10;;;;;;;;;;5098068;28;20115;-80
2021/10/01 14:59:11;;;;;;;1.50;0.80;;;;;;;;;;5097979;28;20068;-76
2021/10/01 15:01:36;;;;;;;4.82;0.77;;;;;;;;;;5098464;28;20038;-80
2021/10/01 15:04:01;;;;;;;6.22;0.77;;;;;;;;;;5097650;28;20453;-81
2021/10/01 15:06:27;;;;;;;3.92;0.68;;;;;;;;;;5077930;28;20428;-76
2021/10/01 15:08:52;;;;;;;10.57;5.32;;;;;;;;;;5073782;28;20041;-77
2021/10/01 15:11:18;;;;;;;3.28;1.88;;;;;;;;;;5074880;28;20036;-79
2021/10/01 15:13:43;;;;;;;5.68;2.90;;;;;;;;;;5074225;28;20032;-78
2021/10/01 15:16:09;;;;;;;4.55;1.58;;;;;;;;;;5075338;28;20067;-78
2021/10/01 15:18:34;;;;;;;4.97;0.90;;;;;;;;;;5073639;28;20058;-78
2021/10/01 15:20:59;;;;;;;1.85;1.05;;;;;;;;;;5073190;28;20447;-78
2021/10/01 15:23:25;;;;;;;1.83;0.98;;;;;;;;;;5074430;28;20056;-79
2021/10/01 15:25:51;;;;;;;7.20;1.88;;;;;;;;;;5074830;28;20083;-79
2021/10/01 15:28:16;;;;;;;2.80;2.15;;;;;;;;;;5057517;28;20033;-77
2021/10/01 15:30:42;;;;;;;2.90;1.55;;;;;;;;;;5074167;28;20487;-78
2021/10/01 15:33:08;;;;;;;4.35;1.15;;;;;;;;;;5085891;28;20530;-78
2021/10/01 15:35:34;;;;;;;3.28;1.05;;;;;;;;;;5093076;28;20134;-76
2021/10/01 15:38:03;;;;;;;4.38;1.42;;;;;;;;;;5090402;28;20510;-77
2021/10/01 15:40:32;;;;;;;2.38;0.60;;;;;;;;;;5094307;28;20031;-79
2021/10/01 15:42:58;;;;;;;9.63;1.73;;;;;;;;;;5095216;28;20056;-78
2021/10/01 15:45:24;;;;;;;2.47;1.15;;;;;;;;;;5096515;28;20452;-80
2021/10/01 15:47:50;;;;;;;4.32;1.00;;;;;;;;;;5097600;28;20054;-79
2021/10/01 15:50:16;;;;;;;2.45;1.13;;;;;;;;;;5099402;28;20032;-78
2021/10/01 15:52:49;;;;;;;4.03;0.77;;;;;;;;;;5095420;28;20406;-78
2021/10/01 15:55:17;;;;;;;2.42;1.00;;;;;;;;;;5093173;28;20032;-76
2021/10/01 15:57:43;;;;;;;9.43;2.42;;;;;;;;;;5091498;28;20114;-76
2021/10/01 16:00:11;;;;;;;5.35;1.40;;;;;;;;;;5090327;28;20070;-75
2021/10/01 16:02:37;;;;;;;3.85;1.40;;;;;;;;;;5092760;28;20028;-76
2021/10/01 16:05:07;;;;;;;4.18;0.98;;;;;;;;;;5096095;28;20455;-76
2021/10/01 16:07:33;;;;;;;5.68;1.88;;;;;;;;;;5099605;28;20039;-76
2021/10/01 16:10:00;;;;;;;2.55;1.50;;;;;;;;;;5099331;28;20545;-75
2021/10/01 16:12:25;;;;;;;3.35;1.38;;;;;;;;;;5099585;28;20075;-73
2021/10/01 16:14:50;;;;;;;2.95;0.98;;;;;;;;;;5099216;28;20079;-73
2021/10/01 16:17:17;;;;;;;4.97;1.50;;;;;;;;;;5099404;28;20046;-73
2021/10/01 16:19:49;;;;;;;4.32;2.00;;;;;;;;;;5099384;28;20048;-73
2021/10/01 16:22:18;;;;;;;2.38;1.30;;;;;;;;;;5099809;28;20043;-77
2021/10/01 16:24:48;;;;;;;2.08;1.13;;;;;;;;;;5100861;28;20039;-81
2021/10/01 16:27:14;;;;;;;3.08;1.30;;;;;;;;;;5100945;28;20028;-79
2021/10/01 16:29:40;;;;;;;2.58;1.15;;;;;;;;;;5099859;28;20035;-78
2021/10/01 16:32:06;;;;;;;2.80;1.00;;;;;;;;;;5099970;28;20515;-78